createdAt,value
2022-12-25T00:01:26.051Z,4.75
2022-12-25T00:03:54.217Z,7.22
2022-12-25T00:06:22.246Z,7.93
2022-12-25T00:08:50.105Z,9.38
2022-12-25T00:11:19.886Z,5.43
2022-12-25T00:13:48.820Z,8.85
2022-12-25T00:16:21.104Z,8.07
2022-12-25T00:18:48.969Z,11.25
2022-12-25T00:21:18.181Z,9.15
2022-12-25T00:23:47.247Z,10.75
2022-12-25T00:26:18.199Z,11.82
2022-12-25T00:28:46.466Z,9.85
2022-12-25T00:31:17.976Z,8.38
2022-12-25T00:33:47.817Z,10.70
2022-12-25T00:36:18.256Z,8.80
2022-12-25T00:38:47.004Z,8.82
2022-12-25T00:41:42.564Z,6.80
2022-12-25T00:44:13.802Z,12.50
2022-12-25T00:46:42.987Z,12.93
2022-12-25T00:49:12.314Z,11.88
2022-12-25T00:51:40.333Z,12.10
2022-12-25T00:54:08.208Z,8.68
2022-12-25T00:56:36.343Z,11.75
2022-12-25T00:59:04.233Z,9.52
2022-12-25T01:01:33.426Z,7.68
2022-12-25T01:04:01.655Z,6.28
2022-12-25T01:06:29.826Z,8.73
2022-12-25T01:09:17.427Z,8.73
2022-12-25T01:11:45.905Z,6.93
2022-12-25T01:14:14.099Z,9.40
2022-12-25T01:16:42.594Z,7.20
2022-12-25T01:19:11.976Z,8.57
2022-12-25T01:21:40.743Z,8.77
2022-12-25T01:24:09.119Z,7.05
2022-12-25T01:26:37.606Z,12.85
2022-12-25T01:29:05.568Z,10.88
2022-12-25T01:31:33.799Z,11.25
2022-12-25T01:34:01.783Z,8.82
2022-12-25T01:36:29.795Z,8.20
2022-12-25T01:38:57.720Z,9.93
2022-12-25T01:41:25.706Z,10.13
2022-12-25T01:44:06.104Z,13.70
2022-12-25T01:46:35.575Z,12.20
2022-12-25T01:49:25.668Z,14.05
2022-12-25T01:52:17.524Z,14.38
2022-12-25T01:55:06.101Z,11.40
2022-12-25T01:57:37.576Z,15.25
2022-12-25T02:00:08.094Z,10.07
2022-12-25T02:02:37.253Z,11.27
2022-12-25T02:05:25.960Z,10.20
2022-12-25T02:07:54.562Z,8.02
2022-12-25T02:10:23.321Z,9.80
2022-12-25T02:12:52.429Z,9.10
2022-12-25T02:15:27.229Z,9.80
2022-12-25T02:18:31.919Z,8.57
2022-12-25T02:21:25.609Z,11.80
2022-12-25T02:24:21.843Z,6.40
2022-12-25T02:27:19.470Z,8.15
2022-12-25T02:30:03.395Z,5.82
2022-12-25T02:32:31.639Z,7.20
2022-12-25T02:35:10.356Z,4.70
2022-12-25T02:38:07.334Z,6.32
2022-12-25T02:40:43.694Z,8.32
2022-12-25T02:43:50.125Z,6.85
2022-12-25T02:46:41.837Z,5.90
2022-12-25T02:49:38.108Z,6.50
2022-12-25T02:52:31.241Z,5.90
2022-12-25T02:55:35.718Z,5.90
2022-12-25T02:58:30.028Z,6.13
2022-12-25T03:01:25.816Z,6.18
2022-12-25T03:04:16.184Z,6.47
2022-12-25T03:07:18.982Z,5.35
2022-12-25T03:10:21.705Z,10.27
2022-12-25T03:13:14.803Z,3.95
2022-12-25T03:16:02.164Z,6.95
2022-12-25T03:18:31.319Z,6.90
2022-12-25T03:21:19.145Z,6.50
2022-12-25T03:24:12.397Z,4.50
2022-12-25T03:26:55.507Z,8.07
2022-12-25T03:29:49.932Z,6.32
2022-12-25T03:32:44.244Z,8.20
2022-12-25T03:36:07.319Z,6.72
2022-12-25T03:38:51.059Z,5.47
2022-12-25T03:42:08.478Z,7.43
2022-12-25T03:45:01.446Z,9.48
2022-12-25T03:47:53.810Z,5.68
2022-12-25T03:50:44.895Z,7.72
2022-12-25T03:53:41.219Z,6.50
2022-12-25T03:56:28.951Z,5.47
2022-12-25T03:59:23.147Z,4.25
2022-12-25T04:02:11.072Z,6.40
2022-12-25T04:04:57.848Z,7.35
2022-12-25T04:07:44.497Z,6.72
2022-12-25T04:10:30.860Z,7.53
2022-12-25T04:13:17.507Z,7.00
2022-12-25T04:16:03.920Z,7.63
2022-12-25T04:18:50.763Z,7.55
2022-12-25T04:21:37.409Z,6.68
2022-12-25T04:24:24.436Z,6.75
2022-12-25T04:27:10.999Z,6.03
2022-12-25T04:29:58.032Z,6.15
2022-12-25T04:32:44.611Z,9.82
2022-12-25T04:35:31.666Z,5.40
2022-12-25T04:37:59.533Z,7.30
2022-12-25T04:40:27.519Z,5.63
2022-12-25T04:42:55.178Z,6.85
2022-12-25T04:45:22.931Z,5.72
2022-12-25T04:47:50.633Z,3.88
2022-12-25T04:50:18.607Z,6.72
2022-12-25T04:52:46.473Z,5.63
2022-12-25T04:55:14.387Z,3.97
2022-12-25T04:57:42.121Z,5.75
2022-12-25T05:00:10.741Z,5.32
2022-12-25T05:02:38.572Z,3.72
2022-12-25T05:05:06.827Z,2.97
2022-12-25T05:07:34.506Z,3.97
2022-12-25T05:10:02.299Z,3.53
2022-12-25T05:12:30.251Z,1.65
2022-12-25T05:14:58.101Z,1.83
2022-12-25T05:17:26.015Z,1.77
2022-12-25T05:19:53.692Z,1.52
2022-12-25T05:22:21.403Z,2.15
2022-12-25T05:24:49.403Z,2.53
2022-12-25T05:27:17.228Z,1.67
2022-12-25T05:29:44.973Z,1.50
2022-12-25T05:34:54.078Z,1.90
2022-12-25T05:37:41.684Z,4.22
2022-12-25T05:40:10.301Z,1.80
2022-12-25T05:42:38.067Z,1.40
2022-12-25T05:45:06.627Z,1.77
2022-12-25T05:47:34.266Z,1.50
2022-12-25T05:50:02.383Z,1.52
2022-12-25T05:52:34.614Z,2.28
2022-12-25T05:55:02.718Z,1.08
2022-12-25T05:57:31.932Z,1.35
2022-12-25T05:59:59.638Z,2.25
2022-12-25T06:02:27.602Z,1.30
2022-12-25T06:04:55.530Z,1.30
2022-12-25T06:07:23.404Z,1.20
2022-12-25T06:09:51.144Z,1.55
2022-12-25T06:12:18.948Z,1.23
2022-12-25T06:14:46.682Z,3.28
2022-12-25T06:17:14.482Z,2.10
2022-12-25T06:19:42.793Z,1.98
2022-12-25T06:22:10.626Z,1.55
2022-12-25T06:24:38.639Z,1.70
2022-12-25T06:27:06.333Z,1.05
2022-12-25T06:29:34.223Z,1.30
2022-12-25T06:32:01.881Z,1.20
2022-12-25T06:34:30.097Z,1.38
2022-12-25T06:36:57.819Z,1.17
2022-12-25T06:39:25.608Z,1.10
2022-12-25T06:41:53.465Z,1.17
2022-12-25T06:44:21.356Z,2.15
2022-12-25T06:46:49.025Z,2.35
2022-12-25T06:49:16.740Z,1.10
2022-12-25T06:51:44.396Z,1.30
2022-12-25T06:54:12.152Z,1.05
2022-12-25T06:56:40.039Z,2.15
2022-12-25T06:59:10.848Z,1.75
2022-12-25T07:01:56.413Z,1.90
2022-12-25T07:04:37.923Z,1.02
2022-12-25T07:07:09.200Z,1.55
2022-12-25T07:09:39.039Z,1.85
2022-12-25T07:12:23.544Z,3.13
2022-12-25T07:14:55.444Z,2.65
2022-12-25T07:17:24.637Z,2.13
2022-12-25T07:19:52.436Z,1.90
2022-12-25T07:22:20.264Z,1.90
2022-12-25T07:24:48.110Z,2.97
2022-12-25T07:27:15.825Z,1.58
2022-12-25T07:29:43.739Z,1.42
2022-12-25T07:32:12.409Z,1.60
2022-12-25T07:34:40.317Z,1.60
2022-12-25T07:37:08.197Z,1.98
2022-12-25T07:39:35.932Z,1.95
2022-12-25T07:42:04.157Z,1.63
2022-12-25T07:44:32.429Z,2.42
2022-12-25T07:47:00.193Z,2.50
2022-12-25T07:49:28.080Z,1.70
2022-12-25T07:51:55.851Z,1.35
2022-12-25T07:54:23.878Z,1.70
2022-12-25T07:56:54.769Z,1.60
2022-12-25T07:59:22.632Z,1.63
2022-12-25T08:01:51.158Z,1.60
2022-12-25T08:04:19.170Z,1.70
2022-12-25T08:06:47.283Z,2.38
2022-12-25T08:09:15.281Z,3.28
2022-12-25T08:11:47.380Z,3.08
2022-12-25T08:14:15.884Z,2.80
2022-12-25T08:16:44.623Z,1.50
2022-12-25T08:19:14.647Z,1.40
2022-12-25T08:21:43.309Z,1.50
2022-12-25T08:24:11.872Z,7.10
2022-12-25T08:26:39.653Z,3.80
2022-12-25T08:29:07.818Z,4.15
2022-12-25T08:31:42.475Z,2.63
2022-12-25T08:34:13.860Z,2.33
2022-12-25T08:36:42.048Z,3.40
2022-12-25T08:39:10.065Z,4.35
2022-12-25T08:41:42.453Z,5.72
2022-12-25T08:44:12.547Z,5.15
2022-12-25T08:46:40.561Z,2.60
2022-12-25T08:49:08.608Z,1.98
2022-12-25T08:51:37.376Z,2.88
2022-12-25T08:54:05.370Z,1.55
2022-12-25T08:56:33.437Z,1.52
2022-12-25T08:59:01.468Z,1.35
2022-12-25T09:01:29.714Z,1.10
2022-12-25T09:03:57.710Z,1.25
2022-12-25T09:06:25.796Z,1.83
2022-12-25T09:08:53.743Z,2.33
2022-12-25T09:11:22.400Z,2.08
2022-12-25T09:13:50.877Z,4.13
2022-12-25T09:16:22.213Z,2.30
2022-12-25T09:21:19.835Z,2.05
2022-12-25T09:23:48.388Z,1.88
2022-12-25T09:26:18.887Z,2.08
2022-12-25T09:28:51.903Z,5.18
2022-12-25T09:31:22.600Z,2.88
2022-12-25T09:33:55.347Z,1.60
2022-12-25T09:36:25.663Z,1.90
2022-12-25T09:38:53.623Z,3.22
2022-12-25T09:41:49.149Z,2.47
2022-12-25T09:44:56.667Z,2.40
2022-12-25T09:47:32.222Z,2.10
2022-12-25T09:50:19.364Z,2.42
2022-12-25T09:53:04.406Z,2.13
2022-12-25T09:55:38.607Z,1.90
2022-12-25T09:58:13.039Z,1.50
2022-12-25T10:00:56.010Z,3.75
2022-12-25T10:03:42.017Z,2.22
2022-12-25T10:06:28.084Z,2.05
2022-12-25T10:09:10.791Z,1.55
2022-12-25T10:12:12.905Z,1.45
2022-12-25T10:15:16.037Z,1.30
2022-12-25T10:18:07.899Z,1.80
2022-12-25T10:20:54.686Z,2.22
2022-12-25T10:23:38.966Z,1.70
2022-12-25T10:26:21.380Z,2.22
2022-12-25T10:29:16.787Z,1.95
2022-12-25T10:31:48.363Z,1.83
2022-12-25T10:36:46.469Z,1.65
2022-12-25T10:39:26.735Z,1.80
2022-12-25T10:42:39.454Z,1.58
2022-12-25T10:45:09.576Z,1.45
2022-12-25T10:47:42.701Z,1.48
2022-12-25T10:50:25.457Z,1.42
2022-12-25T10:53:26.637Z,1.40
2022-12-25T10:56:05.389Z,2.47
2022-12-25T10:58:34.196Z,1.90
2022-12-25T11:01:07.566Z,2.05
2022-12-25T11:03:45.951Z,2.33
2022-12-25T11:06:31.130Z,3.00
2022-12-25T11:09:01.585Z,2.40
2022-12-25T11:11:30.677Z,2.47
2022-12-25T11:14:02.049Z,2.13
2022-12-25T11:19:31.521Z,3.67
2022-12-25T11:22:03.368Z,1.88
2022-12-25T11:24:35.134Z,2.30
2022-12-25T11:27:08.936Z,1.48
2022-12-25T11:29:53.194Z,3.70
2022-12-25T11:32:55.584Z,3.20
2022-12-25T11:35:53.003Z,3.03
2022-12-25T11:38:21.457Z,1.85
2022-12-25T11:40:58.696Z,2.00
2022-12-25T11:43:53.634Z,2.70
2022-12-25T11:46:50.314Z,2.22
2022-12-25T11:49:21.572Z,2.08
2022-12-25T11:51:56.579Z,1.77
2022-12-25T11:54:45.896Z,2.70
2022-12-25T11:57:13.917Z,1.70
2022-12-25T11:59:56.355Z,1.50
2022-12-25T12:02:43.051Z,1.20
2022-12-25T12:05:43.277Z,1.77
2022-12-25T12:08:11.802Z,1.50
2022-12-25T12:11:16.309Z,2.22
2022-12-25T12:13:59.421Z,2.25
2022-12-25T12:16:27.641Z,2.33
2022-12-25T12:18:55.707Z,2.10
2022-12-25T12:21:30.084Z,1.95
2022-12-25T12:24:12.574Z,1.55
2022-12-25T12:26:44.489Z,1.60
2022-12-25T12:29:46.059Z,1.73
2022-12-25T12:32:49.579Z,1.55
2022-12-25T12:35:20.264Z,1.92
2022-12-25T12:37:57.356Z,1.90
2022-12-25T12:40:37.326Z,1.75
2022-12-25T12:43:22.944Z,1.88
2022-12-25T12:45:58.037Z,1.77
2022-12-25T12:48:29.607Z,1.30
2022-12-25T12:51:11.628Z,1.35
2022-12-25T12:53:42.663Z,1.48
2022-12-25T12:56:20.268Z,2.25
2022-12-25T12:58:51.129Z,1.27
2022-12-25T13:02:06.018Z,1.05
2022-12-25T13:05:07.480Z,1.17
2022-12-25T13:07:57.750Z,1.02
2022-12-25T13:10:35.329Z,0.90
2022-12-25T13:13:24.381Z,1.35
2022-12-25T13:15:53.217Z,1.50
2022-12-25T13:18:22.561Z,1.50
2022-12-25T13:20:57.329Z,1.20
2022-12-25T13:23:29.110Z,0.93
2022-12-25T13:26:10.836Z,1.58
2022-12-25T13:28:38.754Z,1.30
2022-12-25T13:31:14.028Z,1.60
2022-12-25T13:34:09.517Z,1.40
2022-12-25T13:36:40.125Z,1.30
2022-12-25T13:39:14.363Z,1.77
2022-12-25T13:42:08.552Z,1.50
2022-12-25T13:44:55.100Z,1.83
2022-12-25T13:47:35.478Z,3.17
2022-12-25T13:50:33.968Z,2.72
2022-12-25T13:53:15.764Z,2.92
2022-12-25T13:55:52.368Z,3.60
2022-12-25T13:58:33.817Z,2.22
2022-12-25T14:03:46.058Z,2.85
2022-12-25T14:06:21.505Z,3.08
2022-12-25T14:08:49.896Z,1.70
2022-12-25T14:11:22.179Z,1.60
2022-12-25T14:13:59.914Z,3.20
2022-12-25T14:16:28.314Z,1.50
2022-12-25T14:18:59.696Z,1.83
2022-12-25T14:24:15.049Z,3.45
2022-12-25T14:26:43.311Z,2.28
2022-12-25T14:29:18.220Z,2.42
2022-12-25T14:31:47.976Z,4.68
2022-12-25T14:34:25.061Z,2.20
2022-12-25T14:36:53.416Z,2.45
2022-12-25T14:39:36.238Z,2.42
2022-12-25T14:42:26.785Z,2.33
2022-12-25T14:45:39.605Z,4.30
2022-12-25T14:48:26.378Z,3.88
2022-12-25T14:51:02.867Z,5.05
2022-12-25T14:53:54.463Z,3.47
2022-12-25T14:56:25.629Z,4.28
2022-12-25T14:58:59.307Z,8.23
2022-12-25T15:01:41.510Z,5.53
2022-12-25T15:04:12.619Z,3.70
2022-12-25T15:07:08.335Z,3.87
2022-12-25T15:09:37.654Z,4.03
2022-12-25T15:12:06.154Z,4.18
2022-12-25T15:14:36.298Z,3.53
2022-12-25T15:17:04.528Z,4.00
2022-12-25T15:19:38.644Z,3.42
2022-12-25T15:22:06.947Z,4.57
2022-12-25T15:24:34.908Z,4.30
2022-12-25T15:27:02.826Z,5.43
2022-12-25T15:30:09.327Z,5.65
2022-12-25T15:32:22.201Z,3.33
2022-12-25T15:34:50.456Z,3.70
2022-12-25T15:37:19.225Z,4.80
2022-12-25T15:39:47.193Z,3.80
2022-12-25T15:42:19.477Z,3.90
2022-12-25T15:44:47.476Z,6.72
2022-12-25T15:47:20.190Z,3.50
2022-12-25T15:49:49.079Z,3.17
2022-12-25T15:52:17.731Z,3.70
2022-12-25T15:54:45.574Z,3.30
2022-12-25T15:57:21.388Z,2.75
2022-12-25T15:59:49.545Z,5.20
2022-12-25T16:02:21.057Z,4.70
2022-12-25T16:04:51.122Z,5.18
2022-12-25T16:07:25.046Z,7.22
2022-12-25T16:09:53.182Z,9.43
2022-12-25T16:12:21.381Z,10.13
2022-12-25T16:14:49.067Z,12.38
2022-12-25T16:17:17.108Z,11.07
2022-12-25T16:19:45.067Z,12.60
2022-12-25T16:22:18.932Z,10.55
2022-12-25T16:24:47.043Z,7.43
2022-12-25T16:27:15.388Z,7.10
2022-12-25T16:29:43.694Z,5.38
2022-12-25T16:32:12.959Z,6.60
2022-12-25T16:34:41.480Z,5.97
2022-12-25T16:37:09.656Z,7.30
2022-12-25T16:39:39.052Z,7.47
2022-12-25T16:42:06.874Z,5.50
2022-12-25T16:44:37.435Z,10.00
2022-12-25T16:47:05.905Z,5.28
2022-12-25T16:49:34.848Z,6.32
2022-12-25T16:52:03.894Z,5.57
2022-12-25T16:54:31.624Z,4.93
2022-12-25T16:56:59.394Z,5.45
2022-12-25T16:59:29.652Z,6.57
2022-12-25T17:01:57.579Z,5.97
2022-12-25T17:04:27.934Z,5.07
2022-12-25T17:06:56.387Z,6.22
2022-12-25T17:09:24.892Z,5.97
2022-12-25T17:11:52.648Z,7.40
2022-12-25T17:14:20.699Z,6.90
2022-12-25T17:16:48.853Z,5.57
2022-12-25T17:19:20.249Z,6.35
2022-12-25T17:21:48.422Z,7.20
2022-12-25T17:24:16.895Z,6.95
2022-12-25T17:26:45.045Z,7.10
2022-12-25T17:29:19.995Z,6.97
2022-12-25T17:31:49.999Z,6.45
2022-12-25T17:34:17.975Z,6.80
2022-12-25T17:36:45.910Z,6.25
2022-12-25T17:39:14.023Z,7.15
2022-12-25T17:41:42.042Z,8.18
2022-12-25T17:44:10.774Z,5.75
2022-12-25T17:46:38.889Z,6.07
2022-12-25T17:49:08.568Z,7.80
2022-12-25T17:51:36.913Z,7.82
2022-12-25T17:54:05.631Z,9.82
2022-12-25T17:56:34.828Z,9.82
2022-12-25T17:59:08.086Z,10.20
2022-12-25T18:01:39.048Z,8.45
2022-12-25T18:04:08.146Z,11.52
2022-12-25T18:06:37.054Z,7.55
2022-12-25T18:09:06.534Z,6.22
2022-12-25T18:11:38.329Z,6.47
2022-12-25T18:14:09.803Z,7.35
2022-12-25T18:16:42.210Z,7.45
2022-12-25T18:19:11.961Z,7.82
2022-12-25T18:21:39.976Z,5.97
2022-12-25T18:24:08.819Z,7.72
2022-12-25T18:26:37.829Z,7.38
2022-12-25T18:29:07.183Z,5.47
2022-12-25T18:31:35.845Z,7.93
2022-12-25T18:34:04.544Z,5.93
2022-12-25T18:36:35.333Z,3.92
2022-12-25T18:39:03.909Z,2.92
2022-12-25T18:41:51.857Z,4.85
2022-12-25T18:44:20.151Z,4.85
2022-12-25T18:46:48.254Z,5.20
2022-12-25T18:49:16.101Z,7.75
2022-12-25T18:51:44.491Z,4.75
2022-12-25T18:54:12.524Z,5.03
2022-12-25T18:56:41.978Z,4.57
2022-12-25T18:59:10.064Z,5.03
2022-12-25T19:01:37.967Z,4.93
2022-12-25T19:04:06.233Z,5.00
2022-12-25T19:06:34.150Z,6.70
2022-12-25T19:09:09.079Z,7.00
2022-12-25T19:11:46.064Z,7.72
2022-12-25T19:14:15.396Z,6.25
2022-12-25T19:16:43.573Z,8.05
2022-12-25T19:19:27.766Z,9.82
2022-12-25T19:21:57.610Z,9.48
2022-12-25T19:24:26.415Z,11.88
2022-12-25T19:26:54.982Z,8.52
2022-12-25T19:29:24.365Z,7.63
2022-12-25T19:31:52.652Z,8.93
2022-12-25T19:34:22.802Z,6.70
2022-12-25T19:36:52.001Z,8.95
2022-12-25T19:39:20.165Z,8.32
2022-12-25T19:41:49.057Z,7.85
2022-12-25T19:44:17.220Z,6.80
2022-12-25T19:46:45.804Z,5.90
2022-12-25T19:49:14.815Z,6.18
2022-12-25T19:51:46.266Z,6.78
2022-12-25T19:54:17.299Z,7.50
2022-12-25T19:56:45.657Z,7.63
2022-12-25T19:59:14.769Z,8.50
2022-12-25T20:01:43.579Z,7.57
2022-12-25T20:04:12.053Z,7.78
2022-12-25T20:06:42.516Z,6.70
2022-12-25T20:09:20.859Z,5.00
2022-12-25T20:11:50.738Z,8.52
2022-12-25T20:14:19.772Z,7.43
2022-12-25T20:16:47.861Z,7.15
2022-12-25T20:19:16.369Z,6.72
2022-12-25T20:21:44.460Z,6.25
2022-12-25T20:24:12.540Z,6.95
2022-12-25T20:26:41.178Z,9.05
2022-12-25T20:29:09.103Z,8.05
2022-12-25T20:31:38.208Z,7.13
2022-12-25T20:34:09.413Z,6.78
2022-12-25T20:36:38.386Z,7.53
2022-12-25T20:39:10.055Z,7.70
2022-12-25T20:41:39.720Z,8.00
2022-12-25T20:44:10.220Z,11.30
2022-12-25T20:46:38.369Z,11.73
2022-12-25T20:49:06.721Z,8.30
2022-12-25T20:51:35.776Z,8.60
2022-12-25T20:54:10.237Z,9.48
2022-12-25T20:56:38.907Z,6.68
2022-12-25T20:59:07.039Z,6.97
2022-12-25T21:01:34.899Z,10.73
2022-12-25T21:04:04.110Z,6.55
2022-12-25T21:06:31.895Z,9.52
2022-12-25T21:09:00.124Z,7.30
2022-12-25T21:11:28.264Z,5.85
2022-12-25T21:13:56.337Z,6.00
2022-12-25T21:16:26.049Z,7.07
2022-12-25T21:18:56.413Z,7.07
2022-12-25T21:21:25.594Z,5.97
2022-12-25T21:23:56.783Z,7.60
2022-12-25T21:26:31.447Z,6.22
2022-12-25T21:29:02.301Z,5.82
2022-12-25T21:31:30.991Z,5.50
2022-12-25T21:33:59.591Z,6.63
2022-12-25T21:36:34.628Z,7.38
2022-12-25T21:39:07.417Z,7.32
2022-12-25T21:41:39.179Z,9.05
2022-12-25T21:46:35.939Z,9.40
2022-12-25T21:49:03.941Z,12.55
2022-12-25T21:51:52.674Z,18.40
2022-12-25T21:54:23.373Z,16.63
2022-12-25T21:56:51.868Z,15.60
2022-12-25T21:59:22.275Z,13.25
2022-12-25T22:01:52.776Z,10.75
2022-12-25T22:04:23.090Z,11.15
2022-12-25T22:07:10.383Z,11.50
2022-12-25T22:09:38.792Z,11.00
2022-12-25T22:12:33.489Z,9.70
2022-12-25T22:15:06.795Z,15.18
2022-12-25T22:17:58.318Z,13.02
2022-12-25T22:20:36.505Z,12.30
2022-12-25T22:23:05.569Z,9.55
2022-12-25T22:25:33.635Z,8.77
2022-12-25T22:28:01.759Z,9.68
2022-12-25T22:30:30.470Z,10.73
2022-12-25T22:32:59.168Z,19.42
2022-12-25T22:35:27.447Z,11.95
2022-12-25T22:37:55.779Z,10.93
2022-12-25T22:40:23.739Z,7.28
2022-12-25T22:42:55.412Z,7.90
2022-12-25T22:45:24.429Z,8.32
2022-12-25T22:47:53.033Z,9.25
2022-12-25T22:50:20.901Z,11.00
2022-12-25T22:52:48.825Z,7.10
2022-12-25T22:55:19.326Z,4.90
2022-12-25T22:57:47.258Z,4.95
2022-12-25T23:00:15.519Z,6.57
2022-12-25T23:02:43.607Z,5.55
2022-12-25T23:05:11.477Z,4.25
2022-12-25T23:07:40.501Z,5.45
2022-12-25T23:10:10.329Z,8.73
2022-12-25T23:12:57.081Z,4.18
2022-12-25T23:15:27.517Z,4.65
2022-12-25T23:18:14.199Z,6.40
2022-12-25T23:21:00.743Z,5.15
2022-12-25T23:23:47.418Z,4.93
2022-12-25T23:26:16.546Z,5.75
2022-12-25T23:29:03.446Z,7.05
2022-12-25T23:31:36.611Z,6.25
2022-12-25T23:34:06.614Z,7.18
2022-12-25T23:36:34.847Z,6.43
2022-12-25T23:39:09.766Z,6.70
2022-12-25T23:41:40.925Z,5.78
2022-12-25T23:44:11.424Z,5.45
2022-12-25T23:46:41.336Z,6.63
2022-12-25T23:49:22.278Z,5.57
2022-12-25T23:51:50.405Z,4.90
2022-12-25T23:54:23.254Z,5.47
2022-12-25T23:56:52.111Z,6.20
2022-12-25T23:59:20.332Z,5.00
